sensor_id;sensor_type;location;lat;lon;timestamp;pressure;altitude;pressure_sealevel;temperature;humidity
12594;BME280;6362;50.208;9.182;2023-04-29T00:00:02;99479.63;;;10.46;94.02
12594;BME280;6362;50.208;9.182;2023-04-29T00:02:30;99480.53;;;10.42;94.19
12594;BME280;6362;50.208;9.182;2023-04-29T00:04:56;99464.16;;;10.37;94.00
12594;BME280;6362;50.208;9.182;2023-04-29T00:07:22;99474.56;;;10.37;94.33
12594;BME280;6362;50.208;9.182;2023-04-29T00:09:47;99474.56;;;10.37;94.09
12594;BME280;6362;50.208;9.182;2023-04-29T00:12:13;99478.91;;;10.35;94.08
12594;BME280;6362;50.208;9.182;2023-04-29T00:14:39;99469.41;;;10.32;93.97
12594;BME280;6362;50.208;9.182;2023-04-29T00:17:05;99468.63;;;10.29;93.84
12594;BME280;6362;50.208;9.182;2023-04-29T00:19:30;99469.53;;;10.25;93.70
12594;BME280;6362;50.208;9.182;2023-04-29T00:21:56;99464.34;;;10.20;94.00
12594;BME280;6362;50.208;9.182;2023-04-29T00:24:21;99462.66;;;10.18;94.08
12594;BME280;6362;50.208;9.182;2023-04-29T00:26:46;99471.31;;;10.18;94.13
12594;BME280;6362;50.208;9.182;2023-04-29T00:29:12;99465.28;;;10.15;93.87
12594;BME280;6362;50.208;9.182;2023-04-29T00:31:38;99473.16;;;10.12;94.04
12594;BME280;6362;50.208;9.182;2023-04-29T00:34:03;99480.09;;;10.10;93.81
12594;BME280;6362;50.208;9.182;2023-04-29T00:36:29;99472.31;;;10.08;94.01
12594;BME280;6362;50.208;9.182;2023-04-29T00:38:56;99476.66;;;10.08;94.25
12594;BME280;6362;50.208;9.182;2023-04-29T00:41:22;99473.19;;;10.07;94.42
12594;BME280;6362;50.208;9.182;2023-04-29T00:43:48;99470.59;;;10.07;94.43
12594;BME280;6362;50.208;9.182;2023-04-29T00:46:13;99473.22;;;10.04;94.47
12594;BME280;6362;50.208;9.182;2023-04-29T00:48:39;99478.44;;;10.04;94.41
12594;BME280;6362;50.208;9.182;2023-04-29T00:51:06;99472.38;;;10.03;94.41
12594;BME280;6362;50.208;9.182;2023-04-29T00:53:32;99476.75;;;9.98;94.24
12594;BME280;6362;50.208;9.182;2023-04-29T00:55:58;99474.19;;;9.97;94.64
12594;BME280;6362;50.208;9.182;2023-04-29T00:58:25;99480.22;;;9.99;94.80
12594;BME280;6362;50.208;9.182;2023-04-29T01:01:00;99479.38;;;9.97;94.49
12594;BME280;6362;50.208;9.182;2023-04-29T01:03:30;99485.50;;;9.94;94.47
12594;BME280;6362;50.208;9.182;2023-04-29T01:15:21;99490.59;;;9.99;94.95
12594;BME280;6362;50.208;9.182;2023-04-29T01:18:31;99488.06;;;9.96;95.20
12594;BME280;6362;50.208;9.182;2023-04-29T01:20:55;99482.00;;;9.95;95.25
12594;BME280;6362;50.208;9.182;2023-04-29T01:23:28;99481.16;;;9.95;95.34
12594;BME280;6362;50.208;9.182;2023-04-29T01:25:55;99488.06;;;9.96;94.85
12594;BME280;6362;50.208;9.182;2023-04-29T01:28:45;99477.69;;;9.96;95.14
12594;BME280;6362;50.208;9.182;2023-04-29T01:34:03;99478.47;;;10.01;95.52
12594;BME280;6362;50.208;9.182;2023-04-29T01:36:52;99482.75;;;10.05;95.60
12594;BME280;6362;50.208;9.182;2023-04-29T01:39:33;99478.44;;;10.02;95.84
12594;BME280;6362;50.208;9.182;2023-04-29T01:44:34;99476.75;;;10.00;95.71
12594;BME280;6362;50.208;9.182;2023-04-29T01:47:01;99478.50;;;9.99;95.80
12594;BME280;6362;50.208;9.182;2023-04-29T01:49:27;99473.34;;;9.93;95.93
12594;BME280;6362;50.208;9.182;2023-04-29T01:51:53;99482.94;;;9.90;95.83
12594;BME280;6362;50.208;9.182;2023-04-29T01:54:19;99482.97;;;9.87;95.70
12594;BME280;6362;50.208;9.182;2023-04-29T01:56:45;99483.03;;;9.84;95.35
12594;BME280;6362;50.208;9.182;2023-04-29T01:59:10;99484.78;;;9.80;95.37
12594;BME280;6362;50.208;9.182;2023-04-29T02:01:36;99476.16;;;9.76;95.48
12594;BME280;6362;50.208;9.182;2023-04-29T02:04:01;99484.03;;;9.72;95.51
12594;BME280;6362;50.208;9.182;2023-04-29T02:06:27;99480.56;;;9.70;95.71
12594;BME280;6362;50.208;9.182;2023-04-29T02:08:52;99490.06;;;9.72;95.64
12594;BME280;6362;50.208;9.182;2023-04-29T02:11:18;99485.75;;;9.71;95.52
12594;BME280;6362;50.208;9.182;2023-04-29T02:13:43;99490.91;;;9.74;95.88
12594;BME280;6362;50.208;9.182;2023-04-29T02:16:10;99494.34;;;9.76;95.53
12594;BME280;6362;50.208;9.182;2023-04-29T02:18:36;99498.69;;;9.74;95.66
12594;BME280;6362;50.208;9.182;2023-04-29T02:21:01;99490.91;;;9.74;95.84
12594;BME280;6362;50.208;9.182;2023-04-29T02:23:27;99494.34;;;9.76;96.13
12594;BME280;6362;50.208;9.182;2023-04-29T02:25:52;99496.09;;;9.77;95.93
12594;BME280;6362;50.208;9.182;2023-04-29T02:28:18;99493.44;;;9.81;96.04
12594;BME280;6362;50.208;9.182;2023-04-29T02:30:43;99499.47;;;9.84;96.13
12594;BME280;6362;50.208;9.182;2023-04-29T02:33:09;99498.56;;;9.87;96.09
12594;BME280;6362;50.208;9.182;2023-04-29T02:35:34;99498.47;;;9.93;95.99
12594;BME280;6362;50.208;9.182;2023-04-29T02:38:00;99508.84;;;9.96;96.24
12594;BME280;6362;50.208;9.182;2023-04-29T02:40:25;99513.00;;;10.09;96.01
12594;BME280;6362;50.208;9.182;2023-04-29T02:42:51;99513.78;;;10.17;95.16
12594;BME280;6362;50.208;9.182;2023-04-29T02:45:17;99507.81;;;10.09;94.80
12594;BME280;6362;50.208;9.182;2023-04-29T02:47:42;99512.19;;;10.07;94.34
12594;BME280;6362;50.208;9.182;2023-04-29T02:50:08;99507.91;;;10.01;94.60
12594;BME280;6362;50.208;9.182;2023-04-29T02:52:33;99511.41;;;10.00;94.97
12594;BME280;6362;50.208;9.182;2023-04-29T02:54:59;99512.28;;;9.98;95.21
12594;BME280;6362;50.208;9.182;2023-04-29T02:57:24;99514.00;;;9.97;95.45
12594;BME280;6362;50.208;9.182;2023-04-29T02:59:50;99522.72;;;9.95;95.38
12594;BME280;6362;50.208;9.182;2023-04-29T03:02:15;99514.91;;;9.96;95.73
12594;BME280;6362;50.208;9.182;2023-04-29T03:04:41;99522.69;;;9.96;95.72
12594;BME280;6362;50.208;9.182;2023-04-29T03:07:07;99528.75;;;9.97;95.79
12594;BME280;6362;50.208;9.182;2023-04-29T03:09:32;99524.38;;;10.00;95.98
12594;BME280;6362;50.208;9.182;2023-04-29T03:11:58;99526.97;;;10.00;95.76
12594;BME280;6362;50.208;9.182;2023-04-29T03:14:23;99523.47;;;10.03;95.91
12594;BME280;6362;50.208;9.182;2023-04-29T03:16:49;99521.72;;;10.03;95.86
12594;BME280;6362;50.208;9.182;2023-04-29T03:19:14;99527.78;;;10.05;95.96
12594;BME280;6362;50.208;9.182;2023-04-29T03:21:40;99521.72;;;10.07;96.21
12594;BME280;6362;50.208;9.182;2023-04-29T03:24:06;99526.00;;;10.09;96.09
12594;BME280;6362;50.208;9.182;2023-04-29T03:26:32;99519.06;;;10.11;96.19
12594;BME280;6362;50.208;9.182;2023-04-29T03:28:57;99521.56;;;10.16;96.59
12594;BME280;6362;50.208;9.182;2023-04-29T03:31:23;99528.53;;;10.17;96.17
12594;BME280;6362;50.208;9.182;2023-04-29T03:33:49;99525.88;;;10.20;96.41
12594;BME280;6362;50.208;9.182;2023-04-29T03:36:15;99531.91;;;10.20;96.06
12594;BME280;6362;50.208;9.182;2023-04-29T03:38:41;99528.44;;;10.21;96.31
12594;BME280;6362;50.208;9.182;2023-04-29T03:41:06;99533.66;;;10.24;96.47
12594;BME280;6362;50.208;9.182;2023-04-29T03:43:32;99531.75;;;10.36;96.14
12594;BME280;6362;50.208;9.182;2023-04-29T03:45:57;99531.81;;;10.31;95.73
12594;BME280;6362;50.208;9.182;2023-04-29T03:48:23;99540.50;;;10.30;95.98
12594;BME280;6362;50.208;9.182;2023-04-29T03:50:49;99535.31;;;10.30;95.87
12594;BME280;6362;50.208;9.182;2023-04-29T03:53:14;99538.81;;;10.27;95.82
12594;BME280;6362;50.208;9.182;2023-04-29T03:55:40;99539.66;;;10.26;96.23
12594;BME280;6362;50.208;9.182;2023-04-29T03:58:05;99543.16;;;10.25;96.09
12594;BME280;6362;50.208;9.182;2023-04-29T04:00:31;99550.06;;;10.26;96.26
12594;BME280;6362;50.208;9.182;2023-04-29T04:02:57;99545.75;;;10.25;95.97
12594;BME280;6362;50.208;9.182;2023-04-29T04:05:23;99549.22;;;10.24;96.66
12594;BME280;6362;50.208;9.182;2023-04-29T04:07:52;99552.69;;;10.25;96.11
12594;BME280;6362;50.208;9.182;2023-04-29T04:10:19;99557.88;;;10.25;96.46
12594;BME280;6362;50.208;9.182;2023-04-29T04:12:44;99558.78;;;10.24;96.07
12594;BME280;6362;50.208;9.182;2023-04-29T04:15:11;99562.22;;;10.24;96.50
12594;BME280;6362;50.208;9.182;2023-04-29T04:17:37;99562.22;;;10.24;96.43
12594;BME280;6362;50.208;9.182;2023-04-29T04:20:02;99567.28;;;10.37;95.97
12594;BME280;6362;50.208;9.182;2023-04-29T04:22:28;99575.97;;;10.34;95.63
12594;BME280;6362;50.208;9.182;2023-04-29T04:24:54;99579.38;;;10.39;94.59
12594;BME280;6362;50.208;9.182;2023-04-29T04:27:20;99580.31;;;10.34;94.92
12594;BME280;6362;50.208;9.182;2023-04-29T04:29:45;99585.47;;;10.37;94.51
12594;BME280;6362;50.208;9.182;2023-04-29T04:32:11;99584.69;;;10.30;94.65
12594;BME280;6362;50.208;9.182;2023-04-29T04:34:36;99588.97;;;10.32;94.79
12594;BME280;6362;50.208;9.182;2023-04-29T04:37:04;99592.47;;;10.30;94.54
12594;BME280;6362;50.208;9.182;2023-04-29T04:39:30;99592.47;;;10.30;94.60
12594;BME280;6362;50.208;9.182;2023-04-29T04:41:55;99597.69;;;10.30;94.89
12594;BME280;6362;50.208;9.182;2023-04-29T04:44:21;99595.06;;;10.31;94.65
12594;BME280;6362;50.208;9.182;2023-04-29T04:46:46;99593.25;;;10.37;94.10
12594;BME280;6362;50.208;9.182;2023-04-29T04:49:12;99603.63;;;10.38;93.14
12594;BME280;6362;50.208;9.182;2023-04-29T04:51:37;99607.13;;;10.37;92.25
12594;BME280;6362;50.208;9.182;2023-04-29T04:54:03;99597.44;;;10.50;91.53
12594;BME280;6362;50.208;9.182;2023-04-29T04:56:28;99604.41;;;10.46;91.15
12594;BME280;6362;50.208;9.182;2023-04-29T04:58:53;99603.50;;;10.50;91.32
12594;BME280;6362;50.208;9.182;2023-04-29T05:01:19;99606.00;;;10.58;90.09
12594;BME280;6362;50.208;9.182;2023-04-29T05:03:44;99599.94;;;10.57;89.15
12594;BME280;6362;50.208;9.182;2023-04-29T05:06:10;99605.03;;;10.65;87.95
12594;BME280;6362;50.208;9.182;2023-04-29T05:08:35;99614.50;;;10.72;87.39
12594;BME280;6362;50.208;9.182;2023-04-29T05:11:00;99615.31;;;10.74;87.25
12594;BME280;6362;50.208;9.182;2023-04-29T05:13:26;99619.66;;;10.74;86.19
12594;BME280;6362;50.208;9.182;2023-04-29T05:15:52;99618.66;;;10.82;86.01
12594;BME280;6362;50.208;9.182;2023-04-29T05:18:17;99620.31;;;10.88;86.12
12594;BME280;6362;50.208;9.182;2023-04-29T05:20:42;99622.09;;;10.86;84.34
12594;BME280;6362;50.208;9.182;2023-04-29T05:23:08;99624.63;;;10.92;83.90
12594;BME280;6362;50.208;9.182;2023-04-29T05:25:34;99624.59;;;10.95;83.02
12594;BME280;6362;50.208;9.182;2023-04-29T05:28:01;99616.63;;;11.06;82.68
12594;BME280;6362;50.208;9.182;2023-04-29T05:30:27;99615.63;;;11.16;81.37
12594;BME280;6362;50.208;9.182;2023-04-29T05:32:52;99614.66;;;11.20;79.69
12594;BME280;6362;50.208;9.182;2023-04-29T05:35:18;99622.28;;;11.34;79.61
12594;BME280;6362;50.208;9.182;2023-04-29T05:37:43;99630.78;;;11.45;79.25
12594;BME280;6362;50.208;9.182;2023-04-29T05:40:09;99637.69;;;11.46;78.07
12594;BME280;6362;50.208;9.182;2023-04-29T05:42:35;99641.97;;;11.49;75.59
12594;BME280;6362;50.208;9.182;2023-04-29T05:45:00;99640.16;;;11.55;75.36
12594;BME280;6362;50.208;9.182;2023-04-29T05:47:26;99637.38;;;11.64;75.28
12594;BME280;6362;50.208;9.182;2023-04-29T05:49:51;99650.34;;;11.69;75.22
12594;BME280;6362;50.208;9.182;2023-04-29T05:52:16;99646.66;;;11.82;75.20
12594;BME280;6362;50.208;9.182;2023-04-29T05:54:42;99651.53;;;12.02;73.34
12594;BME280;6362;50.208;9.182;2023-04-29T05:57:07;99661.06;;;12.03;73.38
12594;BME280;6362;50.208;9.182;2023-04-29T05:59:33;99661.69;;;12.18;72.98
12594;BME280;6362;50.208;9.182;2023-04-29T06:01:59;99666.72;;;12.27;72.74
12594;BME280;6362;50.208;9.182;2023-04-29T06:04:25;99666.41;;;12.45;72.19
12594;BME280;6362;50.208;9.182;2023-04-29T06:06:51;99678.25;;;12.60;72.58
12594;BME280;6362;50.208;9.182;2023-04-29T06:09:18;99675.34;;;12.75;71.02
12594;BME280;6362;50.208;9.182;2023-04-29T06:11:44;99682.06;;;12.87;70.55
12594;BME280;6362;50.208;9.182;2023-04-29T06:14:10;99684.03;;;12.77;69.63
12594;BME280;6362;50.208;9.182;2023-04-29T06:16:35;99691.91;;;12.74;69.45
12594;BME280;6362;50.208;9.182;2023-04-29T06:19:01;99688.47;;;12.71;69.65
12594;BME280;6362;50.208;9.182;2023-04-29T06:21:27;99699.72;;;12.74;69.13
12594;BME280;6362;50.208;9.182;2023-04-29T06:23:53;99695.97;;;12.87;72.96
12594;BME280;6362;50.208;9.182;2023-04-29T06:26:19;99699.03;;;13.08;72.67
12594;BME280;6362;50.208;9.182;2023-04-29T06:28:45;99697.78;;;13.26;69.03
12594;BME280;6362;50.208;9.182;2023-04-29T06:31:10;99703.47;;;13.44;69.76
12594;BME280;6362;50.208;9.182;2023-04-29T06:33:36;99706.75;;;13.53;68.92
12594;BME280;6362;50.208;9.182;2023-04-29T06:36:02;99711.69;;;13.65;68.94
12594;BME280;6362;50.208;9.182;2023-04-29T06:38:28;99715.97;;;13.69;67.38
12594;BME280;6362;50.208;9.182;2023-04-29T06:40:54;99721.56;;;13.52;67.45
12594;BME280;6362;50.208;9.182;2023-04-29T06:43:20;99725.66;;;13.25;67.57
12594;BME280;6362;50.208;9.182;2023-04-29T06:45:45;99720.81;;;13.07;68.67
12594;BME280;6362;50.208;9.182;2023-04-29T06:48:11;99726.16;;;12.99;69.29
12594;BME280;6362;50.208;9.182;2023-04-29T06:50:36;99720.31;;;12.88;69.26
12594;BME280;6362;50.208;9.182;2023-04-29T06:53:02;99731.81;;;12.79;69.11
12594;BME280;6362;50.208;9.182;2023-04-29T06:55:27;99737.47;;;12.56;70.16
12594;BME280;6362;50.208;9.182;2023-04-29T06:57:53;99728.03;;;12.51;70.59
12594;BME280;6362;50.208;9.182;2023-04-29T07:00:19;99739.44;;;12.45;71.70
12594;BME280;6362;50.208;9.182;2023-04-29T07:02:45;99744.19;;;12.22;70.80
12594;BME280;6362;50.208;9.182;2023-04-29T07:05:11;99738.13;;;12.20;71.25
12594;BME280;6362;50.208;9.182;2023-04-29T07:07:36;99743.59;;;12.04;71.50
12594;BME280;6362;50.208;9.182;2023-04-29T07:10:02;99742.28;;;11.77;72.10
12594;BME280;6362;50.208;9.182;2023-04-29T07:12:27;99745.84;;;11.72;72.83
12594;BME280;6362;50.208;9.182;2023-04-29T07:14:53;99746.63;;;11.75;73.10
12594;BME280;6362;50.208;9.182;2023-04-29T07:17:18;99754.34;;;11.84;73.16
12594;BME280;6362;50.208;9.182;2023-04-29T07:19:44;99758.47;;;11.98;73.48
12594;BME280;6362;50.208;9.182;2023-04-29T07:22:10;99761.81;;;12.07;72.62
12594;BME280;6362;50.208;9.182;2023-04-29T07:24:36;99766.03;;;12.14;73.25
12594;BME280;6362;50.208;9.182;2023-04-29T07:27:02;99756.41;;;12.18;72.51
12594;BME280;6362;50.208;9.182;2023-04-29T07:29:27;99771.91;;;12.26;72.60
12594;BME280;6362;50.208;9.182;2023-04-29T07:31:52;99764.94;;;12.26;72.35
12594;BME280;6362;50.208;9.182;2023-04-29T07:34:18;99770.13;;;12.29;72.06
12594;BME280;6362;50.208;9.182;2023-04-29T07:36:43;99778.78;;;12.31;71.88
12594;BME280;6362;50.208;9.182;2023-04-29T07:39:09;99782.13;;;12.38;71.83
12594;BME280;6362;50.208;9.182;2023-04-29T07:41:36;99785.56;;;12.41;71.89
12594;BME280;6362;50.208;9.182;2023-04-29T07:44:02;99789.09;;;12.37;71.70
12594;BME280;6362;50.208;9.182;2023-04-29T07:46:27;99783.91;;;12.36;71.86
12594;BME280;6362;50.208;9.182;2023-04-29T07:48:52;99788.28;;;12.35;72.28
12594;BME280;6362;50.208;9.182;2023-04-29T07:51:18;99789.09;;;12.37;72.08
12594;BME280;6362;50.208;9.182;2023-04-29T07:53:44;99789.94;;;12.39;71.45
12594;BME280;6362;50.208;9.182;2023-04-29T07:56:09;99801.97;;;12.47;70.76
12594;BME280;6362;50.208;9.182;2023-04-29T07:58:35;99807.25;;;12.43;70.37
12594;BME280;6362;50.208;9.182;2023-04-29T08:03:32;99808.13;;;12.42;70.31
12594;BME280;6362;50.208;9.182;2023-04-29T08:06:01;99814.22;;;12.45;70.93
12594;BME280;6362;50.208;9.182;2023-04-29T08:08:28;99814.22;;;12.45;70.62
12594;BME280;6362;50.208;9.182;2023-04-29T08:10:53;99811.63;;;12.41;70.66
12594;BME280;6362;50.208;9.182;2023-04-29T08:13:19;99811.56;;;12.46;71.01
12594;BME280;6362;50.208;9.182;2023-04-29T08:15:44;99815.78;;;12.53;70.94
12594;BME280;6362;50.208;9.182;2023-04-29T08:18:10;99816.75;;;12.48;70.79
12594;BME280;6362;50.208;9.182;2023-04-29T08:20:35;99829.69;;;12.54;70.50
12594;BME280;6362;50.208;9.182;2023-04-29T08:23:01;99833.81;;;12.65;70.44
12594;BME280;6362;50.208;9.182;2023-04-29T08:25:26;99830.34;;;12.66;69.55
12594;BME280;6362;50.208;9.182;2023-04-29T08:27:51;99835.47;;;12.71;69.68
12594;BME280;6362;50.208;9.182;2023-04-29T08:30:17;99838.03;;;12.74;69.93
12594;BME280;6362;50.208;9.182;2023-04-29T08:32:42;99835.56;;;12.65;69.21
12594;BME280;6362;50.208;9.182;2023-04-29T08:35:08;99844.25;;;12.67;69.14
12594;BME280;6362;50.208;9.182;2023-04-29T08:37:34;99849.34;;;12.73;69.69
12594;BME280;6362;50.208;9.182;2023-04-29T08:39:59;99846.78;;;12.70;69.23
12594;BME280;6362;50.208;9.182;2023-04-29T08:42:35;99857.34;;;12.64;69.44
12594;BME280;6362;50.208;9.182;2023-04-29T08:45:02;99864.28;;;12.65;69.10
12594;BME280;6362;50.208;9.182;2023-04-29T08:47:32;99860.13;;;12.53;69.66
12594;BME280;6362;50.208;9.182;2023-04-29T08:50:05;99868.22;;;12.36;69.88
12594;BME280;6362;50.208;9.182;2023-04-29T08:52:31;99866.41;;;12.41;70.36
12594;BME280;6362;50.208;9.182;2023-04-29T08:55:00;99877.75;;;12.37;70.28
12594;BME280;6362;50.208;9.182;2023-04-29T08:57:29;99871.09;;;12.20;70.61
12594;BME280;6362;50.208;9.182;2023-04-29T09:00:07;99871.13;;;12.18;70.74
12594;BME280;6362;50.208;9.182;2023-04-29T09:02:39;99879.06;;;12.09;71.25
12594;BME280;6362;50.208;9.182;2023-04-29T09:05:09;99887.00;;;12.01;71.58
12594;BME280;6362;50.208;9.182;2023-04-29T09:07:38;99880.91;;;12.02;72.24
12594;BME280;6362;50.208;9.182;2023-04-29T09:10:06;99882.63;;;12.05;72.33
12594;BME280;6362;50.208;9.182;2023-04-29T09:12:33;99888.63;;;12.11;72.69
12594;BME280;6362;50.208;9.182;2023-04-29T09:15:00;99879.84;;;12.17;73.03
12594;BME280;6362;50.208;9.182;2023-04-29T09:17:45;99889.44;;;12.13;72.96
12594;BME280;6362;50.208;9.182;2023-04-29T09:22:50;99890.31;;;12.12;74.73
12594;BME280;6362;50.208;9.182;2023-04-29T09:25:16;99889.25;;;12.27;74.13
12594;BME280;6362;50.208;9.182;2023-04-29T09:27:41;99885.78;;;12.25;72.90
12594;BME280;6362;50.208;9.182;2023-04-29T09:30:07;99885.72;;;12.30;72.54
12594;BME280;6362;50.208;9.182;2023-04-29T09:32:33;99892.88;;;12.17;73.59
12594;BME280;6362;50.208;9.182;2023-04-29T09:35:25;99897.22;;;12.15;75.25
12594;BME280;6362;50.208;9.182;2023-04-29T09:37:52;99897.25;;;12.13;75.04
12594;BME280;6362;50.208;9.182;2023-04-29T09:40:31;99896.28;;;12.22;75.35
12594;BME280;6362;50.208;9.182;2023-04-29T09:42:58;99900.53;;;12.26;75.44
12594;BME280;6362;50.208;9.182;2023-04-29T09:45:37;99903.84;;;12.37;76.31
12594;BME280;6362;50.208;9.182;2023-04-29T09:48:04;99898.56;;;12.42;75.87
12594;BME280;6362;50.208;9.182;2023-04-29T09:50:37;99905.38;;;12.52;75.43
12594;BME280;6362;50.208;9.182;2023-04-29T09:53:04;99903.38;;;12.68;75.23
12594;BME280;6362;50.208;9.182;2023-04-29T09:55:33;99900.56;;;12.80;74.60
12594;BME280;6362;50.208;9.182;2023-04-29T09:57:59;99905.44;;;12.99;74.27
12594;BME280;6362;50.208;9.182;2023-04-29T10:00:30;99908.63;;;13.14;73.79
12594;BME280;6362;50.208;9.182;2023-04-29T10:02:58;99906.59;;;13.32;73.59
12594;BME280;6362;50.208;9.182;2023-04-29T10:05:27;99903.69;;;13.47;71.34
12594;BME280;6362;50.208;9.182;2023-04-29T10:07:53;99908.53;;;13.67;71.02
12594;BME280;6362;50.208;9.182;2023-04-29T10:10:20;99913.31;;;13.88;70.33
12594;BME280;6362;50.208;9.182;2023-04-29T10:12:46;99905.25;;;13.97;69.08
12594;BME280;6362;50.208;9.182;2023-04-29T10:15:34;99903.63;;;14.31;68.87
12594;BME280;6362;50.208;9.182;2023-04-29T10:18:11;99905.69;;;14.57;66.61
12594;BME280;6362;50.208;9.182;2023-04-29T10:20:44;99900.22;;;15.00;64.83
12594;BME280;6362;50.208;9.182;2023-04-29T10:23:12;99897.34;;;15.42;64.13
12594;BME280;6362;50.208;9.182;2023-04-29T10:25:39;99896.72;;;15.65;61.11
12594;BME280;6362;50.208;9.182;2023-04-29T10:28:08;99899.03;;;15.75;59.49
12594;BME280;6362;50.208;9.182;2023-04-29T10:30:39;99899.50;;;15.90;59.29
12594;BME280;6362;50.208;9.182;2023-04-29T10:33:08;99905.94;;;16.07;59.12
12594;BME280;6362;50.208;9.182;2023-04-29T10:35:35;99912.91;;;16.36;60.11
12594;BME280;6362;50.208;9.182;2023-04-29T10:38:05;99909.84;;;16.50;57.06
12594;BME280;6362;50.208;9.182;2023-04-29T10:40:44;99899.41;;;16.77;56.98
12594;BME280;6362;50.208;9.182;2023-04-29T10:43:13;99904.03;;;16.95;56.80
12594;BME280;6362;50.208;9.182;2023-04-29T10:45:39;99894.78;;;17.08;56.58
12594;BME280;6362;50.208;9.182;2023-04-29T10:48:12;99898.22;;;16.85;54.66
12594;BME280;6362;50.208;9.182;2023-04-29T10:53:13;99891.72;;;16.43;55.85
12594;BME280;6362;50.208;9.182;2023-04-29T10:55:40;99897.00;;;16.41;55.56
12594;BME280;6362;50.208;9.182;2023-04-29T10:58:35;99898.72;;;16.42;55.96
12594;BME280;6362;50.208;9.182;2023-04-29T11:01:01;99895.50;;;16.34;55.48
12594;BME280;6362;50.208;9.182;2023-04-29T11:03:46;99900.38;;;16.18;55.89
12594;BME280;6362;50.208;9.182;2023-04-29T11:06:12;99905.69;;;16.43;56.56
12594;BME280;6362;50.208;9.182;2023-04-29T11:08:38;99902.84;;;16.51;56.90
12594;BME280;6362;50.208;9.182;2023-04-29T11:11:08;99896.84;;;16.74;55.89
12594;BME280;6362;50.208;9.182;2023-04-29T11:13:38;99897.56;;;16.79;55.26
12594;BME280;6362;50.208;9.182;2023-04-29T11:16:05;99901.69;;;16.86;54.82
12594;BME280;6362;50.208;9.182;2023-04-29T11:18:31;99897.63;;;16.77;54.55
12594;BME280;6362;50.208;9.182;2023-04-29T11:23:35;99894.69;;;16.58;55.09
12594;BME280;6362;50.208;9.182;2023-04-29T11:26:01;99899.75;;;16.64;55.15
12594;BME280;6362;50.208;9.182;2023-04-29T11:28:27;99900.72;;;16.62;56.72
12594;BME280;6362;50.208;9.182;2023-04-29T11:30:55;99902.94;;;16.20;56.58
12594;BME280;6362;50.208;9.182;2023-04-29T11:33:21;99907.50;;;15.85;57.17
12594;BME280;6362;50.208;9.182;2023-04-29T11:35:47;99910.28;;;15.79;57.47
12594;BME280;6362;50.208;9.182;2023-04-29T11:38:12;99913.16;;;15.71;57.93
12594;BME280;6362;50.208;9.182;2023-04-29T11:40:50;99908.00;;;15.36;59.38
12594;BME280;6362;50.208;9.182;2023-04-29T11:43:19;99914.78;;;15.10;60.02
12594;BME280;6362;50.208;9.182;2023-04-29T11:45:47;99922.03;;;15.00;60.97
12594;BME280;6362;50.208;9.182;2023-04-29T11:48:23;99926.00;;;14.81;61.76
12594;BME280;6362;50.208;9.182;2023-04-29T11:50:52;99925.47;;;14.68;62.08
12594;BME280;6362;50.208;9.182;2023-04-29T11:53:19;99927.38;;;14.62;62.30
12594;BME280;6362;50.208;9.182;2023-04-29T11:55:45;99917.28;;;14.45;62.32
12594;BME280;6362;50.208;9.182;2023-04-29T11:58:13;99926.13;;;14.39;62.87
12594;BME280;6362;50.208;9.182;2023-04-29T12:00:39;99934.97;;;14.34;62.99
12594;BME280;6362;50.208;9.182;2023-04-29T12:03:18;99937.50;;;14.38;62.79
12594;BME280;6362;50.208;9.182;2023-04-29T12:05:49;99940.97;;;14.39;62.88
12594;BME280;6362;50.208;9.182;2023-04-29T12:08:21;99933.84;;;14.45;62.50
12594;BME280;6362;50.208;9.182;2023-04-29T12:10:47;99936.38;;;14.48;61.44
12594;BME280;6362;50.208;9.182;2023-04-29T12:13:14;99937.69;;;14.68;61.45
12594;BME280;6362;50.208;9.182;2023-04-29T12:15:40;99937.44;;;14.78;61.47
12594;BME280;6362;50.208;9.182;2023-04-29T12:18:07;99931.28;;;14.79;61.21
12594;BME280;6362;50.208;9.182;2023-04-29T12:20:32;99938.94;;;14.89;60.76
12594;BME280;6362;50.208;9.182;2023-04-29T12:23:13;99941.81;;;14.76;60.25
12594;BME280;6362;50.208;9.182;2023-04-29T12:25:40;99938.00;;;14.56;60.17
12594;BME280;6362;50.208;9.182;2023-04-29T12:28:13;99939.75;;;14.53;61.01
12594;BME280;6362;50.208;9.182;2023-04-29T12:30:38;99944.94;;;14.57;61.39
12594;BME280;6362;50.208;9.182;2023-04-29T12:33:07;99947.72;;;14.49;61.41
12594;BME280;6362;50.208;9.182;2023-04-29T12:35:33;99950.78;;;14.29;61.47
12594;BME280;6362;50.208;9.182;2023-04-29T12:37:58;99952.94;;;14.10;62.13
12594;BME280;6362;50.208;9.182;2023-04-29T12:40:24;99957.41;;;14.04;62.73
12594;BME280;6362;50.208;9.182;2023-04-29T12:42:49;99950.88;;;13.84;63.97
12594;BME280;6362;50.208;9.182;2023-04-29T12:45:27;99950.78;;;13.87;64.11
12594;BME280;6362;50.208;9.182;2023-04-29T12:47:55;99947.41;;;13.82;64.54
12594;BME280;6362;50.208;9.182;2023-04-29T12:50:28;99950.97;;;13.80;64.17
12594;BME280;6362;50.208;9.182;2023-04-29T12:52:55;99946.75;;;13.72;64.89
12594;BME280;6362;50.208;9.182;2023-04-29T12:55:20;99957.13;;;13.77;64.92
12594;BME280;6362;50.208;9.182;2023-04-29T12:57:46;99961.50;;;13.75;65.20
12594;BME280;6362;50.208;9.182;2023-04-29T13:00:12;99957.13;;;13.77;64.54
12594;BME280;6362;50.208;9.182;2023-04-29T13:02:38;99957.00;;;13.82;65.05
12594;BME280;6362;50.208;9.182;2023-04-29T13:05:04;99953.22;;;13.96;64.74
12594;BME280;6362;50.208;9.182;2023-04-29T13:07:29;99964.31;;;14.08;64.06
12594;BME280;6362;50.208;9.182;2023-04-29T13:09:55;99954.47;;;14.19;63.34
12594;BME280;6362;50.208;9.182;2023-04-29T13:12:20;99952.38;;;14.35;62.93
12594;BME280;6362;50.208;9.182;2023-04-29T13:14:46;99947.56;;;14.57;62.43
12594;BME280;6362;50.208;9.182;2023-04-29T13:17:11;99947.84;;;14.80;61.18
12594;BME280;6362;50.208;9.182;2023-04-29T13:19:37;99942.91;;;15.03;61.23
12594;BME280;6362;50.208;9.182;2023-04-29T13:22:02;99946.03;;;15.18;60.33
12594;BME280;6362;50.208;9.182;2023-04-29T13:24:28;99941.38;;;15.29;59.02
12594;BME280;6362;50.208;9.182;2023-04-29T13:26:54;99952.63;;;15.32;58.90
12594;BME280;6362;50.208;9.182;2023-04-29T13:29:19;99949.13;;;15.32;58.83
12594;BME280;6362;50.208;9.182;2023-04-29T13:31:45;99948.56;;;15.21;58.65
12594;BME280;6362;50.208;9.182;2023-04-29T13:34:10;99949.75;;;15.09;59.48
12594;BME280;6362;50.208;9.182;2023-04-29T13:36:36;99954.63;;;14.89;59.61